createdAt,value
2018-06-19T00:04:56.086Z,983.76
2018-06-19T00:05:35.025Z,983.73
2018-06-19T00:07:29.787Z,983.73
2018-06-19T00:08:29.697Z,983.77
2018-06-19T00:09:29.623Z,983.73
2018-06-19T00:10:29.543Z,983.74
2018-06-19T00:11:29.480Z,983.74
2018-06-19T00:12:29.395Z,983.74
2018-06-19T00:13:29.329Z,983.76
2018-06-19T00:14:29.245Z,983.78
2018-06-19T00:15:29.181Z,983.74
2018-06-19T00:16:29.098Z,983.75
2018-06-19T00:17:29.028Z,983.77
2018-06-19T00:18:28.957Z,983.74
2018-06-19T00:19:28.884Z,983.77
2018-06-19T00:20:28.799Z,983.74
2018-06-19T00:21:28.735Z,983.74
2018-06-19T00:22:28.651Z,983.81
2018-06-19T00:23:28.582Z,983.83
2018-06-19T00:24:28.502Z,983.84
2018-06-19T00:25:28.439Z,983.82
2018-06-19T00:26:28.348Z,983.87
2018-06-19T00:27:28.282Z,983.86
2018-06-19T00:28:28.199Z,983.89
2018-06-19T00:29:28.132Z,983.88
2018-06-19T00:30:28.050Z,983.82
2018-06-19T00:31:27.984Z,983.83
2018-06-19T00:32:27.902Z,983.83
2018-06-19T00:33:27.840Z,983.82
2018-06-19T00:34:27.756Z,983.85
2018-06-19T00:35:27.685Z,983.84
2018-06-19T00:36:27.600Z,983.83
2018-06-19T00:37:27.534Z,983.87
2018-06-19T00:38:27.449Z,983.89
2018-06-19T00:39:27.383Z,983.90
2018-06-19T00:40:27.301Z,983.92
2018-06-19T00:41:27.230Z,983.90
2018-06-19T00:42:27.149Z,983.91
2018-06-19T00:43:27.090Z,983.92
2018-06-19T00:44:27.001Z,983.92
2018-06-19T00:45:26.932Z,983.92
2018-06-19T00:46:26.859Z,983.91
2018-06-19T00:47:26.783Z,983.94
2018-06-19T00:48:26.699Z,983.94
2018-06-19T00:49:26.634Z,983.93
2018-06-19T00:50:26.560Z,983.94
2018-06-19T00:51:26.484Z,983.96
2018-06-19T00:52:26.402Z,983.95
2018-06-19T00:53:26.334Z,983.92
2018-06-19T00:54:26.247Z,983.94
2018-06-19T00:55:26.190Z,983.95
2018-06-19T00:56:26.142Z,983.95
2018-06-19T00:57:26.035Z,983.97
2018-06-19T00:58:25.950Z,983.99
2018-06-19T00:59:25.893Z,983.96
2018-06-19T01:00:25.802Z,983.96
2018-06-19T01:01:25.735Z,983.97
2018-06-19T01:02:25.648Z,983.98
2018-06-19T01:03:25.579Z,983.93
2018-06-19T01:04:25.501Z,983.91
2018-06-19T01:05:25.433Z,983.93
2018-06-19T01:06:25.349Z,983.91
2018-06-19T01:07:25.277Z,983.95
2018-06-19T01:08:25.200Z,983.95
2018-06-19T01:09:25.132Z,983.96
2018-06-19T01:10:25.050Z,983.96
2018-06-19T01:11:24.984Z,983.93
2018-06-19T01:12:24.899Z,983.94
2018-06-19T01:13:24.834Z,983.93
2018-06-19T01:14:24.750Z,983.94
2018-06-19T01:15:24.685Z,983.93
2018-06-19T01:16:24.599Z,983.94
2018-06-19T01:17:24.532Z,983.93
2018-06-19T01:18:24.450Z,983.96
2018-06-19T01:19:24.381Z,984.00
2018-06-19T01:20:24.298Z,983.97
2018-06-19T01:21:24.229Z,983.92
2018-06-19T01:22:24.146Z,983.95
2018-06-19T01:23:24.083Z,983.94
2018-06-19T01:24:23.999Z,983.94
2018-06-19T01:25:23.939Z,983.95
2018-06-19T01:26:23.892Z,983.96
2018-06-19T01:27:23.781Z,983.95
2018-06-19T01:28:23.697Z,983.98
2018-06-19T01:29:23.627Z,983.95
2018-06-19T01:30:23.545Z,983.93
2018-06-19T01:31:23.478Z,983.93
2018-06-19T01:32:23.395Z,983.90
2018-06-19T01:33:23.328Z,983.93
2018-06-19T01:34:23.246Z,983.92
2018-06-19T01:35:23.177Z,983.97
2018-06-19T01:36:23.094Z,983.95
2018-06-19T01:37:23.029Z,983.95
2018-06-19T01:38:22.945Z,983.93
2018-06-19T01:39:22.876Z,983.93
2018-06-19T01:40:22.793Z,983.91
2018-06-19T01:41:22.727Z,983.94
2018-06-19T01:42:22.643Z,983.93
2018-06-19T01:43:22.577Z,983.91
2018-06-19T01:44:22.494Z,983.90
2018-06-19T01:45:22.434Z,983.89
2018-06-19T01:46:22.346Z,983.91
2018-06-19T01:47:22.273Z,983.86
2018-06-19T01:48:22.193Z,983.90
2018-06-19T01:49:22.120Z,983.86
2018-06-19T01:50:22.043Z,983.89
2018-06-19T01:51:21.972Z,983.88
2018-06-19T01:52:21.890Z,983.88
2018-06-19T01:53:21.820Z,983.88
2018-06-19T01:54:21.742Z,983.92
2018-06-19T01:55:21.671Z,983.91
2018-06-19T01:56:21.588Z,983.92
2018-06-19T01:57:21.518Z,983.93
2018-06-19T01:58:21.438Z,983.91
2018-06-19T01:59:21.371Z,983.96
2018-06-19T02:00:21.285Z,983.91
2018-06-19T02:01:21.223Z,983.91
2018-06-19T02:02:21.136Z,983.90
2018-06-19T02:03:21.069Z,983.87
2018-06-19T02:04:20.985Z,983.85
2018-06-19T02:05:20.918Z,983.88
2018-06-19T02:06:20.838Z,983.88
2018-06-19T02:07:20.769Z,983.87
2018-06-19T02:08:20.684Z,983.88
2018-06-19T02:09:20.617Z,983.85
2018-06-19T02:10:20.532Z,983.84
2018-06-19T02:11:20.466Z,983.86
2018-06-19T02:12:20.391Z,983.90
2018-06-19T02:13:20.310Z,983.86
2018-06-19T02:14:20.231Z,983.88
2018-06-19T02:15:20.163Z,983.84
2018-06-19T02:16:20.080Z,983.86
2018-06-19T02:17:20.013Z,983.85
2018-06-19T02:18:19.931Z,983.87
2018-06-19T02:19:19.861Z,983.86
2018-06-19T02:20:19.778Z,983.93
2018-06-19T02:21:19.709Z,983.89
2018-06-19T02:22:19.627Z,983.88
2018-06-19T02:23:19.560Z,983.91
2018-06-19T02:24:19.480Z,983.90
2018-06-19T02:25:19.417Z,983.90
2018-06-19T02:26:19.324Z,983.85
2018-06-19T02:27:19.258Z,983.86
2018-06-19T02:28:19.174Z,983.87
2018-06-19T02:29:19.105Z,983.92
2018-06-19T02:30:19.027Z,983.94
2018-06-19T02:31:18.952Z,983.91
2018-06-19T02:32:18.887Z,983.91
2018-06-19T02:33:18.806Z,983.92
2018-06-19T02:34:18.723Z,983.90
2018-06-19T02:35:18.658Z,983.88
2018-06-19T02:36:18.571Z,983.90
2018-06-19T02:37:18.503Z,983.90
2018-06-19T02:38:18.421Z,983.93
2018-06-19T02:39:18.357Z,983.92
2018-06-19T02:40:18.273Z,983.94
2018-06-19T02:41:18.209Z,983.94
2018-06-19T02:42:18.121Z,983.97
2018-06-19T02:43:18.052Z,983.92
2018-06-19T02:44:17.969Z,983.94
2018-06-19T02:45:17.897Z,983.94
2018-06-19T02:46:17.814Z,983.95
2018-06-19T02:47:17.751Z,983.95
2018-06-19T02:48:17.666Z,983.96
2018-06-19T02:49:17.596Z,983.96
2018-06-19T02:50:17.518Z,983.98
2018-06-19T02:51:17.450Z,984.01
2018-06-19T02:52:17.365Z,983.98
2018-06-19T02:53:17.298Z,983.97
2018-06-19T02:54:17.217Z,983.98
2018-06-19T02:55:17.149Z,983.98
2018-06-19T02:56:17.061Z,983.97
2018-06-19T02:57:16.998Z,983.99
2018-06-19T02:58:16.914Z,983.95
2018-06-19T02:59:16.897Z,983.97
2018-06-19T03:00:16.823Z,983.92
2018-06-19T03:01:16.697Z,983.94
2018-06-19T03:02:16.609Z,983.98
2018-06-19T03:03:16.542Z,984.00
2018-06-19T03:04:16.454Z,983.98
2018-06-19T03:05:16.390Z,983.98
2018-06-19T03:06:16.303Z,983.98
2018-06-19T03:07:16.242Z,983.96
2018-06-19T03:08:16.155Z,983.97
2018-06-19T03:09:16.111Z,983.97
2018-06-19T03:10:16.006Z,983.99
2018-06-19T03:11:15.935Z,984.00
2018-06-19T03:12:15.857Z,983.96
2018-06-19T03:13:15.789Z,983.96
2018-06-19T03:14:15.703Z,983.93
2018-06-19T03:15:15.647Z,983.97
2018-06-19T03:16:15.557Z,983.96
2018-06-19T03:17:15.499Z,983.96
2018-06-19T03:18:15.403Z,983.94
2018-06-19T03:19:15.333Z,983.96
2018-06-19T03:20:15.254Z,983.98
2018-06-19T03:21:15.186Z,984.02
2018-06-19T03:22:15.106Z,984.00
2018-06-19T03:23:15.038Z,984.02
2018-06-19T03:24:14.952Z,984.04
2018-06-19T03:25:14.899Z,984.03
2018-06-19T03:26:14.803Z,984.06
2018-06-19T03:27:14.740Z,984.08
2018-06-19T03:28:14.652Z,984.07
2018-06-19T03:29:14.582Z,984.10
2018-06-19T03:30:14.525Z,984.11
2018-06-19T03:31:14.429Z,984.13
2018-06-19T03:32:14.356Z,984.13
2018-06-19T03:33:14.287Z,984.12
2018-06-19T03:34:14.199Z,984.11
2018-06-19T03:35:14.133Z,984.11
2018-06-19T03:36:14.053Z,984.12
2018-06-19T03:37:13.980Z,984.09
2018-06-19T03:38:13.899Z,984.08
2018-06-19T03:39:13.831Z,984.09
2018-06-19T03:40:13.754Z,984.10
2018-06-19T03:41:13.680Z,984.11
2018-06-19T03:42:13.599Z,984.14
2018-06-19T03:43:13.531Z,984.16
2018-06-19T03:44:13.448Z,984.12
2018-06-19T03:45:13.379Z,984.16
2018-06-19T03:46:13.294Z,984.19
2018-06-19T03:47:13.229Z,984.18
2018-06-19T03:48:13.146Z,984.20
2018-06-19T03:49:13.079Z,984.25
2018-06-19T03:50:13.012Z,984.25
2018-06-19T03:51:12.928Z,984.27
2018-06-19T03:52:12.847Z,984.25
2018-06-19T03:53:12.778Z,984.27
2018-06-19T03:54:12.699Z,984.27
2018-06-19T03:55:12.627Z,984.28
2018-06-19T03:56:12.545Z,984.31
2018-06-19T03:57:12.477Z,984.27
2018-06-19T03:58:12.396Z,984.27
2018-06-19T03:59:12.328Z,984.28
2018-06-19T04:00:12.246Z,984.29
2018-06-19T04:01:12.182Z,984.32
2018-06-19T04:02:12.096Z,984.31
2018-06-19T04:03:12.029Z,984.31
2018-06-19T04:04:11.946Z,984.32
2018-06-19T04:05:11.874Z,984.29
2018-06-19T04:06:11.797Z,984.34
2018-06-19T04:07:11.728Z,984.34
2018-06-19T04:08:11.644Z,984.32
2018-06-19T04:09:11.576Z,984.28
2018-06-19T04:10:11.499Z,984.31
2018-06-19T04:11:11.427Z,984.27
2018-06-19T04:12:11.344Z,984.26
2018-06-19T04:13:11.276Z,984.29
2018-06-19T04:14:11.195Z,984.26
2018-06-19T04:15:11.130Z,984.36
2018-06-19T04:16:11.044Z,984.33
2018-06-19T04:17:11.032Z,984.33
2018-06-19T04:18:10.897Z,984.34
2018-06-19T04:19:10.828Z,984.32
2018-06-19T04:20:10.743Z,984.33
2018-06-19T04:21:10.680Z,984.32
2018-06-19T04:22:10.594Z,984.38
2018-06-19T04:23:10.531Z,984.36
2018-06-19T04:24:10.447Z,984.38
2018-06-19T04:25:10.376Z,984.41
2018-06-19T04:26:10.296Z,984.42
2018-06-19T04:27:10.229Z,984.37
2018-06-19T04:28:10.148Z,984.37
2018-06-19T04:29:10.083Z,984.35
2018-06-19T04:30:09.996Z,984.32
2018-06-19T04:31:09.930Z,984.34
2018-06-19T04:32:09.847Z,984.35
2018-06-19T04:33:09.847Z,984.33
2018-06-19T04:34:09.699Z,984.28
2018-06-19T04:35:09.636Z,984.30
2018-06-19T04:36:09.548Z,984.28
2018-06-19T04:37:09.481Z,984.27
2018-06-19T04:38:09.401Z,984.29
2018-06-19T04:39:09.364Z,984.26
2018-06-19T04:40:09.248Z,984.26
2018-06-19T04:41:09.184Z,984.26
2018-06-19T04:42:09.181Z,984.24
2018-06-19T04:43:09.043Z,984.26
2018-06-19T04:44:08.950Z,984.23
2018-06-19T04:45:08.887Z,984.26
2018-06-19T04:46:08.861Z,984.26
2018-06-19T04:47:08.734Z,984.25
2018-06-19T04:48:08.652Z,984.24
2018-06-19T04:49:08.585Z,984.27
2018-06-19T04:50:08.504Z,984.23
2018-06-19T04:51:08.443Z,984.27
2018-06-19T04:52:08.352Z,984.25
2018-06-19T04:53:08.340Z,984.29
2018-06-19T04:54:08.204Z,984.31
2018-06-19T04:55:08.141Z,984.25
2018-06-19T04:56:08.057Z,984.26
2018-06-19T04:57:08.063Z,984.27
2018-06-19T04:58:07.909Z,984.30
2018-06-19T04:59:07.842Z,984.28
2018-06-19T05:00:07.760Z,984.29
2018-06-19T05:01:07.780Z,984.34
2018-06-19T05:02:07.611Z,984.31
2018-06-19T05:03:07.589Z,984.33
2018-06-19T05:04:07.464Z,984.35
2018-06-19T05:05:07.500Z,984.36
2018-06-19T05:06:07.318Z,984.36
2018-06-19T05:07:07.253Z,984.37
2018-06-19T05:08:07.170Z,984.34
2018-06-19T05:09:07.118Z,984.36
2018-06-19T05:10:07.018Z,984.39
2018-06-19T05:11:06.950Z,984.36
2018-06-19T05:12:06.871Z,984.41
2018-06-19T05:13:06.805Z,984.40
2018-06-19T05:14:06.726Z,984.43
2018-06-19T05:15:06.655Z,984.44
2018-06-19T05:16:06.574Z,984.44
2018-06-19T05:17:06.512Z,984.44
2018-06-19T05:18:06.428Z,984.42
2018-06-19T05:19:06.360Z,984.46
2018-06-19T05:20:06.285Z,984.44
2018-06-19T05:21:06.210Z,984.49
2018-06-19T05:22:06.132Z,984.48
2018-06-19T05:23:06.062Z,984.50
2018-06-19T05:24:05.983Z,984.52
2018-06-19T05:25:05.920Z,984.50
2018-06-19T05:26:05.835Z,984.53
2018-06-19T05:27:05.772Z,984.48
2018-06-19T05:28:05.687Z,984.53
2018-06-19T05:29:05.620Z,984.55
2018-06-19T05:30:05.543Z,984.52
2018-06-19T05:31:05.474Z,984.54
2018-06-19T05:32:05.395Z,984.56
2018-06-19T05:33:05.330Z,984.59
2018-06-19T05:34:05.244Z,984.59
2018-06-19T05:35:05.222Z,984.66
2018-06-19T05:36:05.097Z,984.62
2018-06-19T05:37:05.028Z,984.64
2018-06-19T05:38:04.952Z,984.64
2018-06-19T05:39:04.919Z,984.65
2018-06-19T05:40:04.802Z,984.63
2018-06-19T05:41:04.827Z,984.65
2018-06-19T05:42:04.654Z,984.66
2018-06-19T05:43:04.630Z,984.67
2018-06-19T05:44:04.512Z,984.69
2018-06-19T05:45:04.546Z,984.68
2018-06-19T05:46:04.360Z,984.67
2018-06-19T05:47:04.359Z,984.67
2018-06-19T05:48:04.215Z,984.70
2018-06-19T05:49:04.169Z,984.72
2018-06-19T05:50:04.067Z,984.72
2018-06-19T05:51:04.079Z,984.75
2018-06-19T05:52:03.917Z,984.68
2018-06-19T05:53:03.889Z,984.66
2018-06-19T05:54:03.770Z,984.68
2018-06-19T05:55:03.805Z,984.66
2018-06-19T05:56:03.629Z,984.66
2018-06-19T05:57:03.606Z,984.65
2018-06-19T05:58:03.475Z,984.67
2018-06-19T05:59:03.519Z,984.68
2018-06-19T06:00:03.341Z,984.76
2018-06-19T06:01:03.326Z,984.72
2018-06-19T06:02:03.184Z,984.74
2018-06-19T06:03:03.136Z,984.76
2018-06-19T06:04:03.041Z,984.76
2018-06-19T06:05:03.047Z,984.77
2018-06-19T06:06:02.890Z,984.71
2018-06-19T06:07:02.853Z,984.73
2018-06-19T06:08:02.744Z,984.72
2018-06-19T06:09:02.688Z,984.74
2018-06-19T06:10:02.598Z,984.75
2018-06-19T06:11:02.580Z,984.78
2018-06-19T06:12:02.451Z,984.76
2018-06-19T06:13:02.488Z,984.78
2018-06-19T06:14:02.301Z,984.77
2018-06-19T06:15:02.301Z,984.79
2018-06-19T06:16:02.162Z,984.85
2018-06-19T06:17:02.114Z,984.84
2018-06-19T06:18:02.013Z,984.87
2018-06-19T06:19:01.947Z,984.85
2018-06-19T06:20:01.864Z,984.84
2018-06-19T06:21:01.827Z,984.86
2018-06-19T06:22:01.724Z,984.85
2018-06-19T06:23:01.738Z,984.84
2018-06-19T06:24:01.575Z,984.83
2018-06-19T06:25:01.556Z,984.85
2018-06-19T06:26:01.425Z,984.88
2018-06-19T06:27:01.455Z,984.86
2018-06-19T06:28:01.280Z,984.86
2018-06-19T06:29:01.268Z,984.88
2018-06-19T06:30:01.134Z,984.92
2018-06-19T06:31:01.192Z,984.91
2018-06-19T06:32:00.992Z,984.93
2018-06-19T06:33:00.988Z,984.96
2018-06-19T06:34:00.841Z,984.93
2018-06-19T06:35:00.772Z,984.95
2018-06-19T06:36:00.803Z,984.97
2018-06-19T06:37:00.625Z,984.99
2018-06-19T06:38:00.629Z,984.94
2018-06-19T06:39:00.476Z,984.96
2018-06-19T06:40:00.526Z,984.92
2018-06-19T06:41:00.337Z,984.98
2018-06-19T06:42:00.331Z,985.00
2018-06-19T06:43:00.188Z,985.03
2018-06-19T06:44:00.145Z,985.01
2018-06-19T06:45:00.062Z,985.01
2018-06-19T06:46:00.054Z,985.01
2018-06-19T06:46:59.900Z,985.02
2018-06-19T06:47:59.861Z,984.99
2018-06-19T06:48:59.753Z,985.05
2018-06-19T06:49:59.774Z,985.07
2018-06-19T06:50:59.609Z,985.11
2018-06-19T06:51:59.586Z,985.13
2018-06-19T06:52:59.465Z,985.10
2018-06-19T06:53:59.495Z,985.11
2018-06-19T06:54:59.321Z,985.12
2018-06-19T06:55:59.247Z,985.07
2018-06-19T06:56:59.210Z,985.05
2018-06-19T06:57:59.100Z,985.07
2018-06-19T06:58:59.120Z,985.04
2018-06-19T06:59:58.964Z,985.08
2018-06-19T07:00:58.929Z,985.09
2018-06-19T07:01:58.819Z,985.11
2018-06-19T07:02:58.839Z,985.08
2018-06-19T07:03:58.673Z,985.05
2018-06-19T07:04:58.600Z,985.10
2018-06-19T07:05:58.529Z,985.11
2018-06-19T07:06:58.560Z,985.09
2018-06-19T07:07:58.385Z,985.10
2018-06-19T07:08:58.368Z,985.08
2018-06-19T07:09:58.275Z,985.07
2018-06-19T07:10:58.280Z,985.05
2018-06-19T07:11:58.098Z,985.10
2018-06-19T07:12:58.090Z,985.10
2018-06-19T07:13:57.953Z,985.14
2018-06-19T07:14:58.000Z,985.10
2018-06-19T07:15:57.815Z,985.12
2018-06-19T07:16:57.807Z,985.11
2018-06-19T07:17:57.662Z,985.08
2018-06-19T07:18:57.658Z,985.09
2018-06-19T07:19:57.523Z,985.10
2018-06-19T07:20:57.527Z,985.08
2018-06-19T07:21:57.387Z,985.09
2018-06-19T07:22:57.339Z,985.07
2018-06-19T07:23:57.236Z,985.11
2018-06-19T07:24:57.248Z,985.10
2018-06-19T07:25:57.173Z,985.16
2018-06-19T07:26:57.056Z,985.13
2018-06-19T07:27:56.958Z,985.15
2018-06-19T07:28:56.974Z,985.13
2018-06-19T07:29:56.817Z,985.12
2018-06-19T07:30:56.781Z,985.10
2018-06-19T07:31:56.711Z,985.08
2018-06-19T07:32:56.607Z,985.09
2018-06-19T07:33:56.599Z,985.07
2018-06-19T07:34:56.458Z,985.09
2018-06-19T07:35:56.510Z,985.09
2018-06-19T07:36:56.317Z,985.07
2018-06-19T07:37:56.395Z,985.06
2018-06-19T07:38:56.180Z,985.07
2018-06-19T07:39:56.125Z,985.13
2018-06-19T07:40:56.033Z,985.18
2018-06-19T07:41:56.036Z,985.17
2018-06-19T07:42:55.893Z,985.17
2018-06-19T07:43:55.829Z,985.11
2018-06-19T07:44:55.854Z,985.14
2018-06-19T07:45:55.679Z,985.18
2018-06-19T07:46:55.663Z,985.13
2018-06-19T07:47:55.540Z,985.16
2018-06-19T07:48:55.574Z,985.15
2018-06-19T07:49:55.397Z,985.16
2018-06-19T07:50:55.383Z,985.18
2018-06-19T07:51:55.259Z,985.18
2018-06-19T07:52:55.291Z,985.15
2018-06-19T07:53:55.119Z,985.13
2018-06-19T07:54:55.104Z,985.14
2018-06-19T07:55:54.972Z,985.14
2018-06-19T07:56:55.024Z,985.10
2018-06-19T07:57:54.832Z,985.08
2018-06-19T07:58:54.829Z,985.14
2018-06-19T07:59:54.691Z,985.13
2018-06-19T08:00:54.743Z,985.13
2018-06-19T08:01:54.551Z,985.10
2018-06-19T08:02:54.482Z,985.15
2018-06-19T08:03:54.457Z,985.11
2018-06-19T08:04:54.338Z,985.12
2018-06-19T08:05:54.364Z,985.07
2018-06-19T08:06:54.201Z,985.08
2018-06-19T08:07:54.170Z,985.05
2018-06-19T08:08:54.059Z,985.07
2018-06-19T08:09:54.081Z,985.07
2018-06-19T08:10:53.923Z,985.05
2018-06-19T08:11:53.890Z,985.07
2018-06-19T08:12:53.782Z,985.07
2018-06-19T08:13:53.809Z,985.07
2018-06-19T08:14:53.649Z,985.08
2018-06-19T08:15:53.617Z,985.07
2018-06-19T08:16:53.503Z,985.08
2018-06-19T08:17:53.521Z,985.09
2018-06-19T08:18:53.374Z,985.11
2018-06-19T08:19:53.332Z,985.13
2018-06-19T08:20:53.227Z,985.08
2018-06-19T08:21:53.244Z,985.10
2018-06-19T08:22:53.118Z,985.10
2018-06-19T08:23:53.052Z,985.03
2018-06-19T08:24:52.950Z,985.05
2018-06-19T08:25:52.963Z,985.02
2018-06-19T08:26:52.805Z,985.04
2018-06-19T08:27:52.773Z,985.04
2018-06-19T08:28:52.668Z,985.09
2018-06-19T08:29:52.690Z,985.01
2018-06-19T08:30:52.534Z,985.05
2018-06-19T08:31:52.495Z,985.06
2018-06-19T08:32:52.387Z,985.09
2018-06-19T08:33:52.409Z,985.07
2018-06-19T08:34:52.250Z,985.07
2018-06-19T08:35:52.218Z,985.06
2018-06-19T08:36:52.149Z,985.08
2018-06-19T08:37:52.045Z,985.06
2018-06-19T08:38:52.029Z,985.08
2018-06-19T08:39:51.903Z,985.06
2018-06-19T08:40:51.945Z,985.08
2018-06-19T08:41:51.780Z,985.09
2018-06-19T08:42:51.753Z,985.06
2018-06-19T08:43:51.619Z,985.05
2018-06-19T08:44:51.662Z,985.02
2018-06-19T08:45:51.484Z,985.02
2018-06-19T08:46:51.474Z,985.06
2018-06-19T08:47:51.344Z,985.05
2018-06-19T08:48:51.386Z,985.05
2018-06-19T08:49:51.205Z,985.05
2018-06-19T08:50:51.190Z,985.11
2018-06-19T08:51:51.068Z,985.12
2018-06-19T08:52:51.106Z,985.08
2018-06-19T08:53:50.925Z,985.10
2018-06-19T08:54:50.913Z,985.09
2018-06-19T08:55:50.790Z,985.07
2018-06-19T08:56:50.825Z,985.10
2018-06-19T08:57:50.649Z,985.05
2018-06-19T08:58:50.636Z,985.07
2018-06-19T08:59:50.513Z,985.07
2018-06-19T09:00:50.550Z,985.07
2018-06-19T09:01:50.372Z,985.08
2018-06-19T09:02:50.358Z,985.03
2018-06-19T09:03:50.236Z,985.06
2018-06-19T09:04:50.269Z,985.02
2018-06-19T09:05:50.098Z,985.02
2018-06-19T09:06:50.075Z,985.02
2018-06-19T09:07:49.957Z,985.02
2018-06-19T09:08:49.987Z,985.01
2018-06-19T09:09:49.821Z,985.04
2018-06-19T09:10:49.799Z,985.04
2018-06-19T09:11:49.683Z,985.04
2018-06-19T09:12:49.710Z,985.05
2018-06-19T09:13:49.547Z,985.07
2018-06-19T09:14:49.516Z,985.09
2018-06-19T09:15:49.405Z,985.05
2018-06-19T09:16:49.430Z,985.05
2018-06-19T09:17:49.270Z,985.08
2018-06-19T09:18:49.236Z,985.08
2018-06-19T09:19:49.131Z,985.11
2018-06-19T09:20:49.146Z,985.09
2018-06-19T09:21:48.989Z,985.10
2018-06-19T09:22:48.958Z,985.09
2018-06-19T09:23:48.858Z,985.09
2018-06-19T09:24:48.868Z,985.10
2018-06-19T09:25:48.726Z,985.10
2018-06-19T09:26:48.674Z,985.16
2018-06-19T09:27:48.578Z,985.13
2018-06-19T09:28:48.586Z,985.12
2018-06-19T09:29:48.444Z,985.10
2018-06-19T09:30:48.394Z,985.09
2018-06-19T09:31:48.305Z,985.10
2018-06-19T09:32:48.239Z,985.09
2018-06-19T09:33:48.167Z,985.07
2018-06-19T09:34:48.113Z,985.10
2018-06-19T09:35:48.031Z,985.09
2018-06-19T09:36:48.027Z,985.14
2018-06-19T09:37:47.899Z,985.06
2018-06-19T09:38:47.937Z,985.14
2018-06-19T09:39:47.758Z,985.14
2018-06-19T09:40:47.681Z,985.17
2018-06-19T09:41:47.652Z,985.17
2018-06-19T09:42:47.545Z,985.14
2018-06-19T09:43:47.556Z,985.15
2018-06-19T09:44:47.404Z,985.20
2018-06-19T09:45:47.368Z,985.20
2018-06-19T09:46:47.267Z,985.18
2018-06-19T09:47:47.281Z,985.20
2018-06-19T09:48:47.132Z,985.20
2018-06-19T09:49:47.089Z,985.21
2018-06-19T09:50:46.995Z,985.19
2018-06-19T09:51:46.998Z,985.19
2018-06-19T09:52:46.860Z,985.21
2018-06-19T09:53:46.811Z,985.25
2018-06-19T09:54:46.716Z,985.20
2018-06-19T09:55:46.716Z,985.22
2018-06-19T09:56:46.583Z,985.24
2018-06-19T09:57:46.531Z,985.22
2018-06-19T09:58:46.441Z,985.21
2018-06-19T09:59:46.435Z,985.18
2018-06-19T10:00:46.305Z,985.18
2018-06-19T10:01:46.349Z,985.22
2018-06-19T10:02:46.165Z,985.15
2018-06-19T10:03:47.182Z,985.19
2018-06-19T10:04:46.024Z,985.14
2018-06-19T10:05:46.181Z,985.16
2018-06-19T10:06:45.886Z,985.17
2018-06-19T10:07:45.868Z,985.18
2018-06-19T10:08:45.747Z,985.18
2018-06-19T10:09:45.785Z,985.17
2018-06-19T10:10:45.613Z,985.24
2018-06-19T10:11:45.590Z,985.19
2018-06-19T10:12:45.485Z,985.16
2018-06-19T10:13:45.505Z,985.16
2018-06-19T10:14:45.337Z,985.17
2018-06-19T10:15:45.320Z,985.15
2018-06-19T10:16:45.198Z,985.18
2018-06-19T10:17:45.223Z,985.15
2018-06-19T10:18:45.061Z,985.17
2018-06-19T10:19:45.035Z,985.18
2018-06-19T10:20:44.926Z,985.20
2018-06-19T10:21:44.941Z,985.19
2018-06-19T10:22:44.785Z,985.18
2018-06-19T10:23:44.754Z,985.18
2018-06-19T10:24:44.646Z,985.18
2018-06-19T10:25:44.700Z,985.21
2018-06-19T10:26:44.511Z,985.18
2018-06-19T10:27:44.473Z,985.17
2018-06-19T10:28:44.378Z,985.13
2018-06-19T10:29:44.388Z,985.11
2018-06-19T10:30:44.237Z,985.13
2018-06-19T10:31:44.195Z,985.11
2018-06-19T10:32:44.099Z,985.10
2018-06-19T10:33:44.104Z,985.11
2018-06-19T10:34:43.966Z,985.12
2018-06-19T10:35:43.909Z,985.09
2018-06-19T10:36:43.831Z,985.08
2018-06-19T10:37:43.829Z,985.11
2018-06-19T10:38:43.690Z,985.10
2018-06-19T10:39:43.731Z,985.07
2018-06-19T10:40:43.552Z,985.09
2018-06-19T10:41:43.540Z,985.10
2018-06-19T10:42:43.417Z,985.11
2018-06-19T10:43:43.452Z,985.09
2018-06-19T10:44:43.279Z,985.12
2018-06-19T10:45:43.262Z,985.11
2018-06-19T10:46:43.144Z,985.14
2018-06-19T10:47:43.173Z,985.16
2018-06-19T10:48:43.037Z,985.11
2018-06-19T10:49:42.983Z,985.09
2018-06-19T10:50:42.871Z,985.06
2018-06-19T10:51:42.894Z,985.11
2018-06-19T10:52:42.736Z,985.09
2018-06-19T10:53:42.704Z,985.09
2018-06-19T10:54:42.600Z,985.08
2018-06-19T10:55:42.613Z,985.08
2018-06-19T10:56:42.463Z,985.04
2018-06-19T10:57:42.421Z,985.01
2018-06-19T10:58:42.325Z,985.03
2018-06-19T10:59:42.332Z,985.07
2018-06-19T11:00:42.194Z,985.09
2018-06-19T11:01:42.142Z,985.07
2018-06-19T11:02:42.057Z,985.07
2018-06-19T11:03:42.053Z,985.08
2018-06-19T11:04:41.918Z,985.06
2018-06-19T11:05:41.963Z,985.08
2018-06-19T11:06:41.778Z,985.03
2018-06-19T11:07:41.772Z,985.04
2018-06-19T11:08:41.659Z,985.00
2018-06-19T11:09:41.682Z,984.98
2018-06-19T11:10:41.513Z,984.96
2018-06-19T11:11:41.495Z,985.01
2018-06-19T11:12:41.370Z,984.96
2018-06-19T11:13:41.402Z,984.96
2018-06-19T11:14:41.240Z,984.93
2018-06-19T11:15:41.210Z,984.91
2018-06-19T11:16:41.105Z,984.89
2018-06-19T11:17:41.124Z,984.87
2018-06-19T11:18:40.966Z,984.89
2018-06-19T11:19:40.931Z,984.88
2018-06-19T11:20:40.836Z,984.88
2018-06-19T11:21:40.842Z,984.90
2018-06-19T11:22:40.699Z,984.91
2018-06-19T11:23:40.651Z,984.90
2018-06-19T11:24:40.562Z,984.97
2018-06-19T11:25:40.572Z,984.94
2018-06-19T11:26:40.427Z,984.97
2018-06-19T11:27:40.471Z,984.98
2018-06-19T11:28:40.289Z,984.94
2018-06-19T11:29:40.280Z,984.94
2018-06-19T11:30:40.155Z,984.91
2018-06-19T11:31:40.192Z,984.94
2018-06-19T11:32:40.030Z,984.92
2018-06-19T11:33:39.999Z,984.92
2018-06-19T11:34:39.886Z,984.93
2018-06-19T11:35:39.911Z,984.94
2018-06-19T11:36:39.756Z,984.93
2018-06-19T11:37:39.714Z,984.89
2018-06-19T11:38:39.698Z,984.90
2018-06-19T11:39:39.631Z,984.91
2018-06-19T11:40:39.480Z,984.93
2018-06-19T11:41:39.441Z,984.90
2018-06-19T11:42:39.354Z,984.90
2018-06-19T11:43:39.356Z,984.93
2018-06-19T11:44:39.271Z,984.90
2018-06-19T11:45:39.262Z,984.89
2018-06-19T11:46:39.085Z,984.91
2018-06-19T11:47:39.074Z,984.94
2018-06-19T11:48:38.952Z,984.89
2018-06-19T11:49:38.982Z,984.91
2018-06-19T11:50:38.814Z,984.94
2018-06-19T11:51:38.786Z,984.92
2018-06-19T11:52:38.679Z,984.93
2018-06-19T11:53:38.700Z,984.93
2018-06-19T11:54:38.602Z,984.93
2018-06-19T11:55:38.508Z,984.95
2018-06-19T11:56:38.409Z,984.93
2018-06-19T11:57:38.419Z,984.96
2018-06-19T11:58:38.286Z,984.95
2018-06-19T11:59:38.230Z,984.96
2018-06-19T12:00:38.143Z,984.98
2018-06-19T12:01:38.141Z,984.98
2018-06-19T12:02:38.013Z,984.94
2018-06-19T12:03:38.051Z,984.91
2018-06-19T12:04:37.874Z,984.90
2018-06-19T12:05:37.859Z,984.90
2018-06-19T12:06:37.790Z,984.89
2018-06-19T12:07:37.771Z,984.86
2018-06-19T12:08:37.606Z,984.89
2018-06-19T12:09:37.579Z,984.90
2018-06-19T12:10:37.479Z,984.92
2018-06-19T12:11:37.489Z,984.93
2018-06-19T12:12:37.351Z,984.89
2018-06-19T12:13:37.299Z,984.88
2018-06-19T12:14:37.212Z,984.95
2018-06-19T12:15:37.210Z,984.90
2018-06-19T12:16:37.078Z,984.90
2018-06-19T12:17:37.123Z,984.91
2018-06-19T12:18:36.943Z,984.90
2018-06-19T12:19:36.929Z,984.88
2018-06-19T12:20:36.832Z,984.86
2018-06-19T12:21:36.849Z,984.91
2018-06-19T12:22:36.681Z,984.90
2018-06-19T12:23:36.650Z,984.89
2018-06-19T12:24:36.548Z,984.91
2018-06-19T12:25:36.569Z,984.86
2018-06-19T12:26:36.414Z,984.83
2018-06-19T12:27:36.371Z,984.84
2018-06-19T12:28:36.290Z,984.84
2018-06-19T12:29:36.353Z,984.85
2018-06-19T12:30:36.151Z,984.87
2018-06-19T12:31:36.192Z,984.82
2018-06-19T12:32:36.015Z,984.84